W. J. Authement — WDE7846 — position and weather

sailwx.info

Track history (hours):
 
Tides and Currents Weather Stations Pressure Air Temp Water Temp Dewpoint Dewpoint Depression Visibility Wind Speed Wind Dir Waves Ship Positions

W. J. Authement

Owner: LeBeouf Bros. Towing, LLC, Houma, LA. More information available from US FCC via Universal Licensing System and Coast Guard Vessel Documentation Center.

Last reported at 2017-Oct-18 00:42 UTC. Time now 2017-Oct-20 05:05 UTC.
Position N 29°32' W 094°54'.

Length 24 m; draft 3 m.

Type: Tug. MMSI: 367398380.

Date/timePositionNaut miles runAvg speedWind from/ knotsBaromVisibWave heightAir tempDewpointWater temp
2017-Oct-18 00:42N 29°32' W 094°54'1 6.9
2017-Oct-18 00:30N 29°33' W 094°55'4 6.9
2017-Oct-17 23:59N 29°36' W 094°57'3 7.0
2017-Oct-17 23:30N 29°39' W 094°58'  
2017-Oct-12 11:29N 29°45' W 095°12'0 0.0
2017-Oct-12 10:53N 29°45' W 095°12'0 0.0
2017-Oct-12 10:20N 29°45' W 095°12'0 0.1
2017-Oct-12 09:50N 29°45' W 095°12'2 5.6
2017-Oct-12 09:23N 29°44' W 095°09'6 1.6
2017-Oct-12 06:02N 29°42' W 095°03'2 1.3
2017-Oct-12 04:46N 29°44' W 095°03'5 4.4
2017-Oct-12 03:35N 29°44' W 095°09'2 5.0
2017-Oct-12 03:13N 29°45' W 095°11'0 1.4
2017-Oct-12 03:00N 29°45' W 095°12'0 0.0
2017-Oct-12 02:30N 29°45' W 095°12'0 0.0
2017-Oct-12 01:51N 29°45' W 095°12'0 0.0
2017-Oct-12 01:21N 29°45' W 095°12'  
2017-Oct-08 10:58N 29°44' W 095°09'3 4.8
2017-Oct-08 10:16N 29°43' W 095°13'  
Track history (hours):
 
Tides and Currents Weather Stations Pressure Air Temp Water Temp Dewpoint Dewpoint Depression Visibility Wind Speed Wind Dir Waves Ship Positions

W. J. Authement

Owner: LeBeouf Bros. Towing, LLC, Houma, LA. More information available from US FCC via Universal Licensing System and Coast Guard Vessel Documentation Center.

Last reported at 2017-Oct-18 00:42 UTC. Time now 2017-Oct-20 05:05 UTC.
Position N 29°32' W 094°54'.

Length 24 m; draft 3 m.

Type: Tug. MMSI: 367398380.

Date/timePositionNaut miles runAvg speedWind from/ knotsBaromVisibWave heightAir tempDewpointWater temp
2017-Oct-18 00:42N 29°32' W 094°54'1 6.9
2017-Oct-18 00:30N 29°33' W 094°55'4 6.9
2017-Oct-17 23:59N 29°36' W 094°57'3 7.0
2017-Oct-17 23:30N 29°39' W 094°58'  
2017-Oct-12 11:29N 29°45' W 095°12'0 0.0
2017-Oct-12 10:53N 29°45' W 095°12'0 0.0
2017-Oct-12 10:20N 29°45' W 095°12'0 0.1
2017-Oct-12 09:50N 29°45' W 095°12'2 5.6
2017-Oct-12 09:23N 29°44' W 095°09'6 1.6
2017-Oct-12 06:02N 29°42' W 095°03'2 1.3
2017-Oct-12 04:46N 29°44' W 095°03'5 4.4
2017-Oct-12 03:35N 29°44' W 095°09'2 5.0
2017-Oct-12 03:13N 29°45' W 095°11'0 1.4
2017-Oct-12 03:00N 29°45' W 095°12'0 0.0
2017-Oct-12 02:30N 29°45' W 095°12'0 0.0
2017-Oct-12 01:51N 29°45' W 095°12'0 0.0
2017-Oct-12 01:21N 29°45' W 095°12'  
2017-Oct-08 10:58N 29°44' W 095°09'3 4.8
2017-Oct-08 10:16N 29°43' W 095°13'  

Dump ship's entire track history